Hovedside
METAR-TAF:

METAR-TAF

Lufthavner :

Kuusamo, Finland

Kuusamo lufthavn

breddegrad: 65-58N, lengdegrad: 029-11E, høyde over havet: 262 m

Gjeldene værobservasjon

Denne rapporten ble laget for 39 minutter siden, klokken 18:20 UTC
Vind 5 kt fra Sør
Temperatur 6°C
Luftfuktighet 87%
Trykk 1033 hPa
Sikt 10 km eller mer
Overskyet i en høyde av 800 ft

METAR: EFKS 221820Z AUTO 19005KT 9999 OVC008 06/04 Q1033

Tid: 21:59 (18:59 UTC)

Varsel

Denne rapporten ble laget for 10 timer og 27 minutter siden, klokken 08:32 UTC
Varsel gyldig fra 22. klokken 09 UTC til 22. klokken 13 UTC
Vind 9 kt fra Sør-sørøst
Sikt 10 km eller mer
Brutte skyer i en høyde av 1100 ft
Midlertidig
fra 22. klokken 09 UTC til 22. klokken 10 UTC
Brutte skyer i en høyde av 1500 ft

TAF: EFKS 220832Z 2209/2213 16009KT 9999 BKN011 TEMPO 2209/2210 BKN015

Værobservasjoner og værvarsel for over 4000 flyplasser (METAR- og TAF-rapporter).

Tilgjengelige stasjoner er representert av de røde og gule prikkene på kartet.

Hold musepekeren over prikken for å se navnet på stasjonen.

Klikk så for å se værobservasjoner og -varsler.

For å forandre kartet kan du klikke på den grønne knappen med svart kryss for å zoome inn, på den grønne knappen med strek for å zoome ut, eller på de grønne pilene for å se tilstøtende kart.


METAR-TAF: